Time;durP1;ratioP1;P1;durP2;ratioP2;P2;SDS_P1;SDS_P2;PMS_P1;PMS_P2;Temp;Humidity;BMP_temperature;BMP_pressure;BME280_temperature;BME280_humidity;BME280_pressure;Samples;Min_cycle;Max_cycle;Signal;HPM_P1;HPM_P2
2023/06/15 00:02:23;;;;;;;6.18;4.30;;;19.70;99.90;;;;;;5046426;28;20042;-53
2023/06/15 00:04:51;;;;;;;5.57;3.83;;;19.80;99.90;;;;;;5043272;28;20049;-54
2023/06/15 00:07:16;;;;;;;5.85;3.75;;;19.80;99.90;;;;;;5029407;28;20094;-53
2023/06/15 00:09:42;;;;;;;6.93;4.20;;;19.70;99.90;;;;;;5052040;28;20119;-53
2023/06/15 00:12:09;;;;;;;6.13;4.15;;;19.70;99.90;;;;;;5041825;28;20044;-53
2023/06/15 00:14:36;;;;;;;7.25;4.05;;;19.70;99.90;;;;;;5047993;28;20040;-53
2023/06/15 00:17:02;;;;;;;8.00;4.03;;;19.70;99.90;;;;;;5047124;28;20021;-56
2023/06/15 00:19:28;;;;;;;6.53;3.67;;;19.70;99.90;;;;;;5047997;28;20043;-52
2023/06/15 00:21:56;;;;;;;7.18;4.50;;;19.60;99.90;;;;;;5039133;28;20064;-55
2023/06/15 00:24:22;;;;;;;6.63;3.92;;;19.70;99.90;;;;;;5045424;28;20041;-55
2023/06/15 00:26:48;;;;;;;7.18;3.97;;;19.90;99.90;;;;;;5046593;28;20392;-54
2023/06/15 00:29:13;;;;;;;7.07;4.55;;;20.00;99.90;;;;;;5044368;28;20029;-52
2023/06/15 00:31:39;;;;;;;7.03;4.40;;;20.10;99.90;;;;;;5042675;28;20040;-52
2023/06/15 00:34:05;;;;;;;7.57;4.22;;;20.10;99.90;;;;;;5042712;28;20392;-54
2023/06/15 00:36:31;;;;;;;7.10;4.05;;;20.00;99.90;;;;;;5016599;28;20065;-53
2023/06/15 00:38:56;;;;;;;6.38;3.95;;;19.90;99.90;;;;;;5046743;28;20035;-53
2023/06/15 00:41:22;;;;;;;5.93;3.90;;;20.00;99.90;;;;;;5046713;28;20033;-53
2023/06/15 00:43:48;;;;;;;6.28;4.43;;;20.00;99.90;;;;;;5050071;28;20926;-54
2023/06/15 00:46:14;;;;;;;7.20;4.10;;;20.10;99.90;;;;;;5047038;28;20042;-53
2023/06/15 00:48:40;;;;;;;6.25;4.03;;;20.10;99.90;;;;;;5035568;28;20068;-52
2023/06/15 00:51:07;;;;;;;9.07;4.68;;;20.20;99.90;;;;;;5046082;28;20052;-53
2023/06/15 00:53:33;;;;;;;6.65;4.00;;;20.30;99.90;;;;;;5043006;28;20041;-53
2023/06/15 00:55:59;;;;;;;7.13;4.10;;;20.20;99.90;;;;;;5046594;28;20396;-53
2023/06/15 00:58:26;;;;;;;7.50;3.75;;;20.20;99.90;;;;;;5041080;28;20037;-52
2023/06/15 01:00:54;;;;;;;6.28;4.10;;;20.10;99.90;;;;;;5048929;28;20476;-55
2023/06/15 01:03:20;;;;;;;7.53;4.13;;;20.20;99.90;;;;;;5045859;28;20045;-51
2023/06/15 01:05:52;;;;;;;5.95;3.65;;;20.20;99.90;;;;;;5048196;28;20033;-53
2023/06/15 01:08:20;;;;;;;7.35;4.25;;;20.30;99.90;;;;;;5038951;28;20048;-51
2023/06/15 01:10:47;;;;;;;7.60;4.28;;;20.30;99.90;;;;;;5036905;28;20057;-53
2023/06/15 01:13:19;;;;;;;6.50;4.60;;;20.20;99.90;;;;;;5046547;28;20106;-55
2023/06/15 01:15:45;;;;;;;7.57;4.35;;;20.30;99.90;;;;;;5045014;28;20033;-53
2023/06/15 01:18:20;;;;;;;6.43;4.40;;;20.40;99.90;;;;;;5045652;28;20041;-54
2023/06/15 01:20:48;;;;;;;9.35;5.05;;;20.40;99.90;;;;;;5048836;28;20557;-54
2023/06/15 01:23:44;;;;;;;6.25;3.95;;;20.40;99.90;;;;;;5047250;28;20128;-54
2023/06/15 01:26:15;;;;;;;7.47;4.55;;;20.40;99.90;;;;;;5053437;28;20040;-55
2023/06/15 01:28:49;;;;;;;8.17;4.60;;;20.50;99.90;;;;;;5041008;28;20473;-56
2023/06/15 01:31:17;;;;;;;8.55;4.75;;;20.60;99.90;;;;;;5041662;28;20383;-52
2023/06/15 01:33:50;;;;;;;8.20;4.18;;;20.30;99.90;;;;;;5057017;28;20129;-54
2023/06/15 01:36:17;;;;;;;5.57;4.07;;;20.20;99.90;;;;;;5038651;28;20029;-54
2023/06/15 01:38:44;;;;;;;6.63;4.13;;;20.20;99.90;;;;;;5040740;28;20122;-53
2023/06/15 01:41:11;;;;;;;5.57;3.78;;;20.20;99.90;;;;;;5053012;28;20037;-53
2023/06/15 01:43:39;;;;;;;7.28;4.75;;;20.10;99.90;;;;;;5043987;28;20053;-55
2023/06/15 01:46:05;;;;;;;6.85;3.90;;;19.90;99.90;;;;;;5044661;28;20419;-52
2023/06/15 01:48:32;;;;;;;8.23;4.07;;;19.90;99.90;;;;;;5046300;28;20477;-55
2023/06/15 01:50:59;;;;;;;6.45;4.30;;;19.90;99.90;;;;;;5045856;28;20079;-54
2023/06/15 01:53:24;;;;;;;5.97;4.40;;;19.80;99.90;;;;;;5050378;28;20116;-54
2023/06/15 01:55:51;;;;;;;8.55;4.00;;;19.90;99.90;;;;;;5050055;28;20459;-54
2023/06/15 01:58:17;;;;;;;6.55;4.20;;;19.90;99.90;;;;;;5037485;28;20049;-53
2023/06/15 02:00:44;;;;;;;8.27;4.30;;;19.90;99.90;;;;;;5048373;28;20404;-56
2023/06/15 02:03:11;;;;;;;5.63;3.80;;;19.70;99.90;;;;;;5042751;28;20078;-54
2023/06/15 02:05:39;;;;;;;7.65;4.40;;;19.60;99.90;;;;;;5045690;28;20484;-54
2023/06/15 02:08:09;;;;;;;6.47;4.50;;;19.60;99.90;;;;;;5047639;28;20029;-51
2023/06/15 02:10:35;;;;;;;6.97;4.65;;;19.60;99.90;;;;;;5051112;28;20025;-54
2023/06/15 02:13:01;;;;;;;7.07;4.55;;;19.70;99.90;;;;;;5042249;28;20032;-51
2023/06/15 02:15:28;;;;;;;4.72;3.63;;;19.70;99.90;;;;;;5046461;28;20033;-51
2023/06/15 02:18:00;;;;;;;7.57;4.30;;;19.70;99.90;;;;;;5046740;28;20108;-52
2023/06/15 02:20:30;;;;;;;7.43;4.40;;;19.70;99.90;;;;;;5048255;28;20113;-52
2023/06/15 02:22:59;;;;;;;9.18;4.75;;;19.50;99.90;;;;;;5046027;28;20485;-54
2023/06/15 02:25:25;;;;;;;9.27;4.55;;;19.40;99.90;;;;;;5047098;28;20035;-50
2023/06/15 02:27:51;;;;;;;6.47;4.20;;;19.50;99.90;;;;;;5048384;28;20112;-51
2023/06/15 02:30:18;;;;;;;5.43;3.92;;;19.30;99.90;;;;;;5050456;28;20445;-51
2023/06/15 02:32:48;;;;;;;6.03;4.35;;;19.30;99.90;;;;;;5050803;28;20107;-51
2023/06/15 02:35:14;;;;;;;7.97;4.40;;;19.40;99.90;;;;;;5048768;28;20029;-51
2023/06/15 02:37:40;;;;;;;7.03;4.53;;;19.60;99.90;;;;;;5046119;28;20383;-53
2023/06/15 02:40:08;;;;;;;7.82;3.90;;;19.60;99.90;;;;;;5053076;28;20045;-51
2023/06/15 02:42:36;;;;;;;9.05;3.70;;;19.70;99.90;;;;;;5053473;28;20490;-53
2023/06/15 02:45:03;;;;;;;7.97;3.97;;;19.80;99.90;;;;;;5053146;28;20053;-51
2023/06/15 02:47:29;;;;;;;7.00;4.13;;;19.90;99.90;;;;;;5024861;28;20040;-53
2023/06/15 02:49:58;;;;;;;8.15;4.00;;;19.90;99.90;;;;;;5020220;28;20507;-53
2023/06/15 02:52:25;;;;;;;6.38;4.40;;;19.80;99.90;;;;;;5051230;28;20383;-54
2023/06/15 02:54:51;;;;;;;6.90;4.30;;;19.70;99.90;;;;;;5026293;28;20040;-52
2023/06/15 02:57:16;;;;;;;11.55;4.63;;;19.60;99.90;;;;;;5032076;28;20494;-54
2023/06/15 02:59:44;;;;;;;7.13;4.45;;;19.60;99.90;;;;;;5053108;28;20274;-53
2023/06/15 03:02:10;;;;;;;6.57;4.30;;;19.50;99.90;;;;;;5053286;28;20434;-52
2023/06/15 03:04:44;;;;;;;12.45;4.97;;;19.40;99.90;;;;;;5052960;28;20056;-52
2023/06/15 03:07:16;;;;;;;9.13;3.60;;;19.30;99.90;;;;;;5052427;28;20122;-53
2023/06/15 03:09:52;;;;;;;7.93;4.47;;;19.50;99.90;;;;;;5034920;28;20037;-52
2023/06/15 03:12:18;;;;;;;7.55;4.15;;;19.50;99.90;;;;;;5055596;28;20060;-50
2023/06/15 03:14:44;;;;;;;6.82;4.25;;;19.60;99.90;;;;;;5044065;28;20100;-52
2023/06/15 03:17:12;;;;;;;6.43;4.15;;;19.70;99.90;;;;;;5047891;28;20472;-55
2023/06/15 03:19:39;;;;;;;6.82;3.22;;;19.70;99.90;;;;;;5050161;28;20124;-54
2023/06/15 03:22:07;;;;;;;5.45;3.75;;;19.80;99.90;;;;;;5046721;28;20025;-54
2023/06/15 03:24:33;;;;;;;7.45;3.95;;;19.90;99.90;;;;;;5050226;28;20048;-54
2023/06/15 03:27:02;;;;;;;5.07;3.28;;;20.00;99.90;;;;;;5046880;28;20017;-52
2023/06/15 03:29:29;;;;;;;5.55;3.17;;;20.00;99.90;;;;;;5048815;28;20034;-53
2023/06/15 03:31:56;;;;;;;5.05;3.13;;;20.00;99.90;;;;;;5045583;28;20025;-52
2023/06/15 03:34:22;;;;;;;5.63;3.20;;;20.00;99.90;;;;;;5023415;28;20038;-53
2023/06/15 03:36:51;;;;;;;8.23;3.80;;;20.10;99.90;;;;;;5050403;28;20021;-53
2023/06/15 03:39:20;;;;;;;7.43;3.92;;;20.10;99.90;;;;;;5041210;28;20029;-53
2023/06/15 03:41:46;;;;;;;5.72;4.00;;;20.10;99.90;;;;;;5051939;28;20497;-55
2023/06/15 03:44:12;;;;;;;6.95;4.15;;;20.10;99.90;;;;;;5040599;28;20064;-54
2023/06/15 03:46:37;;;;;;;5.22;4.03;;;20.10;99.90;;;;;;5044774;28;20025;-54
2023/06/15 03:49:03;;;;;;;6.18;4.35;;;20.10;99.90;;;;;;5047159;28;20029;-53
2023/06/15 03:51:29;;;;;;;8.05;5.35;;;20.20;99.90;;;;;;5048459;28;20029;-54
2023/06/15 03:53:55;;;;;;;5.93;4.57;;;20.20;99.90;;;;;;5047024;28;20028;-53
2023/06/15 03:56:20;;;;;;;8.90;4.25;;;20.30;99.90;;;;;;5047336;28;20053;-53
2023/06/15 03:58:46;;;;;;;6.93;4.18;;;20.30;99.90;;;;;;5051298;28;20412;-51
2023/06/15 04:01:15;;;;;;;4.97;3.45;;;20.30;99.90;;;;;;5000487;28;20037;-51
2023/06/15 04:03:41;;;;;;;8.70;3.67;;;;;;;;;;5052283;28;20084;-51
2023/06/15 04:06:07;;;;;;;4.63;3.58;;;20.40;99.90;;;;;;5051667;28;20108;-54
2023/06/15 04:08:33;;;;;;;8.48;4.25;;;20.40;99.90;;;;;;5052427;28;20116;-51
2023/06/15 04:10:59;;;;;;;6.45;3.53;;;20.40;99.90;;;;;;5048255;28;20536;-52
2023/06/15 04:13:25;;;;;;;6.35;4.07;;;20.40;99.90;;;;;;5051021;28;20597;-52
2023/06/15 04:15:53;;;;;;;5.63;3.72;;;;;;;;;;5051933;28;20159;-54
2023/06/15 04:18:20;;;;;;;6.68;3.97;;;;;;;;;;5050585;28;20512;-51
2023/06/15 04:20:46;;;;;;;6.72;3.40;;;;;;;;;;5052262;28;20391;-54
2023/06/15 04:23:12;;;;;;;5.32;3.88;;;;;;;;;;5051072;28;20037;-51
2023/06/15 04:25:40;;;;;;;7.93;4.30;;;;;;;;;;5047965;28;20045;-54
2023/06/15 04:28:10;;;;;;;6.28;3.60;;;;;;;;;;5001097;28;20037;-54
2023/06/15 04:30:37;;;;;;;4.68;3.47;;;;;;;;;;5042031;28;20064;-53
2023/06/15 04:33:04;;;;;;;5.97;3.55;;;;;;;;;;5048729;28;20067;-54
2023/06/15 04:35:31;;;;;;;7.68;3.78;;;;;;;;;;5043086;28;20490;-51
2023/06/15 04:38:02;;;;;;;5.50;3.47;;;20.60;99.90;;;;;;5045241;28;20025;-53
2023/06/15 04:40:28;;;;;;;7.00;3.42;;;20.60;99.90;;;;;;5038253;28;20033;-51
2023/06/15 04:42:54;;;;;;;7.03;3.28;;;20.50;99.90;;;;;;5048047;28;20079;-55
2023/06/15 04:45:20;;;;;;;5.03;3.05;;;20.50;99.90;;;;;;5046979;28;20018;-52
2023/06/15 04:47:47;;;;;;;5.82;3.40;;;20.40;99.90;;;;;;5048910;28;20460;-54
2023/06/15 04:50:13;;;;;;;5.80;3.90;;;20.40;99.90;;;;;;5041564;28;20029;-51
2023/06/15 04:52:40;;;;;;;5.22;3.42;;;20.50;99.90;;;;;;5047093;28;20043;-53
2023/06/15 04:55:06;;;;;;;4.82;3.80;;;;;;;;;;5044930;28;20025;-54
2023/06/15 04:57:32;;;;;;;6.00;3.30;;;20.30;99.90;;;;;;5051269;28;20043;-53
2023/06/15 04:59:58;;;;;;;5.95;3.85;;;20.40;99.90;;;;;;5042784;28;20407;-52
2023/06/15 05:02:23;;;;;;;6.93;3.80;;;20.30;99.90;;;;;;5047764;28;20033;-53
2023/06/15 05:04:49;;;;;;;6.28;3.50;;;20.40;99.90;;;;;;5044692;28;20052;-53
2023/06/15 05:07:15;;;;;;;6.60;3.65;;;20.40;99.90;;;;;;5048938;28;20032;-55
2023/06/15 05:09:42;;;;;;;5.72;3.50;;;20.40;99.90;;;;;;5045177;28;20404;-52
2023/06/15 05:12:08;;;;;;;5.10;3.92;;;20.50;99.90;;;;;;5046455;28;20033;-52
2023/06/15 05:14:33;;;;;;;7.35;4.40;;;20.50;99.90;;;;;;5042849;28;20040;-56
2023/06/15 05:17:03;;;;;;;7.47;3.58;;;20.60;99.90;;;;;;5049148;28;20120;-51
2023/06/15 05:19:30;;;;;;;8.18;3.53;;;;;;;;;;5046685;28;20044;-50
2023/06/15 05:22:00;;;;;;;7.30;3.53;;;;;;;;;;5039715;28;20025;-51
2023/06/15 05:24:26;;;;;;;6.80;3.38;;;;;;;;;;5039305;28;20049;-52
2023/06/15 05:26:52;;;;;;;4.75;3.35;;;21.00;99.90;;;;;;5041774;28;20036;-52
2023/06/15 05:29:19;;;;;;;4.75;3.47;;;21.00;99.90;;;;;;5044817;28;20037;-51
2023/06/15 05:31:45;;;;;;;6.00;3.63;;;21.00;99.90;;;;;;5049283;28;20079;-51
2023/06/15 05:34:11;;;;;;;4.85;3.75;;;21.10;99.90;;;;;;5031351;28;20041;-53
2023/06/15 05:36:37;;;;;;;6.07;3.83;;;21.10;99.90;;;;;;5041064;28;20029;-52
2023/06/15 05:39:03;;;;;;;5.55;3.78;;;21.00;99.90;;;;;;5043230;28;20036;-52
2023/06/15 05:41:30;;;;;;;5.57;3.53;;;20.90;99.90;;;;;;5035449;28;20064;-53
2023/06/15 05:43:56;;;;;;;4.80;3.35;;;20.70;99.90;;;;;;5049635;28;20045;-53
2023/06/15 05:46:22;;;;;;;5.85;3.40;;;20.60;99.90;;;;;;5042535;28;20041;-53
2023/06/15 05:48:48;;;;;;;4.65;3.03;;;20.60;99.90;;;;;;5011612;28;20037;-53
2023/06/15 05:51:13;;;;;;;3.63;2.85;;;20.70;99.90;;;;;;5040745;28;20037;-53
2023/06/15 05:53:39;;;;;;;4.45;3.42;;;20.70;99.90;;;;;;5020300;28;20033;-53
2023/06/15 05:56:05;;;;;;;5.70;3.75;;;20.70;99.90;;;;;;5048788;28;20036;-53
2023/06/15 05:58:30;;;;;;;5.10;3.45;;;21.00;99.90;;;;;;5050382;28;20037;-53
2023/06/15 06:00:57;;;;;;;4.90;3.58;;;;;;;;;;5049060;28;20381;-53
2023/06/15 06:03:23;;;;;;;5.70;3.40;;;;;;;;;;5050110;28;20037;-53
2023/06/15 06:05:49;;;;;;;5.70;3.35;;;21.60;99.90;;;;;;5049584;28;20024;-53
2023/06/15 06:08:14;;;;;;;4.38;2.85;;;21.50;99.90;;;;;;5047050;28;20452;-53
2023/06/15 06:10:40;;;;;;;4.30;2.83;;;21.40;99.90;;;;;;5048706;28;20076;-53
2023/06/15 06:13:06;;;;;;;4.47;2.97;;;21.50;99.90;;;;;;5053338;28;20108;-53
2023/06/15 06:15:31;;;;;;;6.22;3.10;;;21.50;99.90;;;;;;5047951;28;20400;-53
2023/06/15 06:17:57;;;;;;;5.18;2.90;;;21.40;99.90;;;;;;5047949;28;20060;-54
2023/06/15 06:20:23;;;;;;;5.13;2.65;;;21.50;99.90;;;;;;5041479;28;20068;-53
2023/06/15 06:22:48;;;;;;;3.53;2.25;;;21.60;99.90;;;;;;5041868;28;20551;-54
2023/06/15 06:25:14;;;;;;;5.72;3.00;;;21.70;99.90;;;;;;5046583;28;20017;-53
2023/06/15 06:27:40;;;;;;;4.85;3.00;;;21.80;99.90;;;;;;5033810;28;20041;-52
2023/06/15 06:30:06;;;;;;;4.57;2.90;;;21.70;99.90;;;;;;5040726;28;20020;-53
2023/06/15 06:32:32;;;;;;;4.55;3.00;;;21.60;99.90;;;;;;4984702;28;20441;-54
2023/06/15 06:34:58;;;;;;;4.55;3.10;;;21.50;99.90;;;;;;5051754;28;20097;-53
2023/06/15 06:37:26;;;;;;;5.55;2.50;;;21.70;99.90;;;;;;5047352;28;20087;-52
2023/06/15 06:39:52;;;;;;;4.47;3.05;;;21.70;99.90;;;;;;5049739;28;20027;-53
2023/06/15 06:42:18;;;;;;;4.93;3.13;;;21.80;99.90;;;;;;5037764;28;20112;-53
2023/06/15 06:44:44;;;;;;;8.13;3.38;;;;;;;;;;5041720;28;20044;-53
2023/06/15 06:47:11;;;;;;;6.32;2.92;;;;;;;;;;5052700;28;20035;-52
2023/06/15 06:49:37;;;;;;;5.80;2.70;;;;;;;;;;5052279;28;20041;-52
2023/06/15 06:52:03;;;;;;;4.78;3.08;;;;;;;;;;5052794;28;20078;-52
2023/06/15 06:54:29;;;;;;;4.70;2.97;;;;;;;;;;5034315;28;20034;-53
2023/06/15 06:56:55;;;;;;;5.70;2.90;;;;;;;;;;5050064;28;20381;-52
2023/06/15 06:59:22;;;;;;;4.40;3.05;;;;;;;;;;5046486;28;20029;-52
2023/06/15 07:01:48;;;;;;;4.10;2.83;;;;;;;;;;5041749;28;20028;-52
2023/06/15 07:04:14;;;;;;;3.25;2.45;;;;;;;;;;5047942;28;20103;-52
2023/06/15 07:06:40;;;;;;;4.45;3.17;;;;;;;;;;5046132;28;20052;-52
2023/06/15 07:09:06;;;;;;;6.38;3.17;;;;;;;;;;5044168;28;20082;-52
2023/06/15 07:11:32;;;;;;;5.82;3.20;;;;;;;;;;5051021;28;20087;-52
2023/06/15 07:14:00;;;;;;;6.25;2.83;;;;;;;;;;5047660;28;20033;-52
2023/06/15 07:16:26;;;;;;;5.13;3.45;;;;;;;;;;5052356;28;20032;-52
2023/06/15 07:18:55;;;;;;;4.03;2.95;;;;;;;;;;5045660;28;20048;-53
2023/06/15 07:21:21;;;;;;;8.60;3.17;;;;;;;;;;5047617;28;20039;-52
2023/06/15 07:23:47;;;;;;;5.28;3.40;;;;;;;;;;5052370;28;20156;-52
2023/06/15 07:26:13;;;;;;;6.85;3.03;;;;;;;;;;5048865;28;20124;-52
2023/06/15 07:28:40;;;;;;;5.95;3.03;;;;;;;;;;5046682;28;20044;-53
2023/06/15 07:42:40;;;;;;;7.38;3.40;;;22.20;99.90;;;;;;5099930;27;20486;-51
2023/06/15 07:45:06;;;;;;;4.50;3.10;;;22.60;99.90;;;;;;5095653;28;20032;-50
2023/06/15 07:47:32;;;;;;;4.70;3.17;;;22.70;99.90;;;;;;5080363;28;20028;-51
2023/06/15 07:49:58;;;;;;;6.10;4.32;;;22.70;99.90;;;;;;5063787;28;20372;-50
2023/06/15 07:52:24;;;;;;;6.30;4.18;;;22.60;99.90;;;;;;5097771;28;20035;-51
2023/06/15 07:54:50;;;;;;;6.95;3.30;;;22.50;99.90;;;;;;5104748;28;20477;-51
2023/06/15 07:57:15;;;;;;;4.72;3.03;;;22.40;99.90;;;;;;5101005;28;20032;-51
2023/06/15 07:59:41;;;;;;;5.20;3.13;;;22.20;99.90;;;;;;5097258;28;20032;-50
2023/06/15 08:02:07;;;;;;;4.05;3.17;;;22.00;99.90;;;;;;5068414;28;20039;-51
2023/06/15 08:04:32;;;;;;;6.55;4.78;;;21.90;99.90;;;;;;5102177;28;20032;-50
2023/06/15 08:06:58;;;;;;;7.45;4.18;;;21.80;99.90;;;;;;5100884;28;20028;-50
2023/06/15 08:09:24;;;;;;;7.93;3.70;;;21.50;99.90;;;;;;5100208;28;20024;-50
2023/06/15 08:11:50;;;;;;;6.55;3.53;;;21.50;99.90;;;;;;5015601;28;20091;-51
2023/06/15 08:14:19;;;;;;;4.80;3.22;;;21.60;99.90;;;;;;5079268;28;20126;-51
2023/06/15 08:16:44;;;;;;;4.75;3.50;;;21.70;99.90;;;;;;5092950;28;20442;-51
2023/06/15 08:19:10;;;;;;;5.13;3.47;;;21.80;99.90;;;;;;5100303;28;20034;-50
2023/06/15 08:21:36;;;;;;;6.28;4.28;;;21.90;99.90;;;;;;5076690;28;20043;-51
2023/06/15 08:24:01;;;;;;;7.03;3.72;;;21.50;99.90;;;;;;5100337;28;20040;-51
2023/06/15 08:26:27;;;;;;;8.05;3.80;;;21.40;99.90;;;;;;5076527;28;20040;-52
2023/06/15 08:28:53;;;;;;;5.05;3.50;;;21.30;99.90;;;;;;5099877;28;20024;-51
2023/06/15 08:31:19;;;;;;;4.13;3.10;;;21.10;99.90;;;;;;5100585;28;20039;-51
2023/06/15 08:33:44;;;;;;;5.10;3.50;;;21.10;99.90;;;;;;5098907;28;20558;-51
2023/06/15 08:36:11;;;;;;;5.05;3.63;;;21.00;99.90;;;;;;5097104;28;20107;-51
2023/06/15 08:38:36;;;;;;;6.03;4.20;;;21.20;99.90;;;;;;5103646;28;20024;-51
2023/06/15 08:41:02;;;;;;;7.45;3.92;;;21.30;99.90;;;;;;5102661;28;20475;-51
2023/06/15 08:43:30;;;;;;;5.10;3.63;;;21.40;99.90;;;;;;5049575;28;20475;-51
2023/06/15 08:45:59;;;;;;;7.13;4.70;;;21.50;99.90;;;;;;5081771;28;20413;-51
2023/06/15 08:48:27;;;;;;;5.60;3.80;;;21.70;99.90;;;;;;5088173;28;20034;-51
2023/06/15 08:50:54;;;;;;;7.43;4.47;;;21.70;99.90;;;;;;5088884;28;20498;-50
2023/06/15 08:53:22;;;;;;;7.00;4.13;;;21.80;99.90;;;;;;5086524;28;20368;-50
2023/06/15 08:55:48;;;;;;;8.82;4.88;;;21.70;99.90;;;;;;5079311;28;20040;-51
2023/06/15 08:58:15;;;;;;;7.97;4.78;;;21.60;99.90;;;;;;5067469;28;20476;-50
2023/06/15 09:00:41;;;;;;;11.20;6.10;;;21.50;99.90;;;;;;5088775;28;20483;-50
2023/06/15 09:03:09;;;;;;;8.40;4.93;;;21.40;99.90;;;;;;5085424;28;20032;-50
2023/06/15 09:05:36;;;;;;;7.07;4.50;;;21.40;99.90;;;;;;5086818;28;20400;-50
2023/06/15 09:08:03;;;;;;;8.32;4.82;;;21.30;99.90;;;;;;5083992;28;20537;-52
2023/06/15 09:10:29;;;;;;;9.05;5.72;;;21.50;99.90;;;;;;5088636;28;20380;-51
2023/06/15 09:12:57;;;;;;;8.80;5.32;;;21.30;99.90;;;;;;5088871;28;20029;-51
2023/06/15 09:15:30;;;;;;;8.23;5.32;;;21.40;99.90;;;;;;5067106;28;20040;-51
2023/06/15 09:18:02;;;;;;;7.65;4.95;;;21.40;99.90;;;;;;5085597;28;20037;-50
2023/06/15 09:20:30;;;;;;;8.48;4.90;;;21.50;99.90;;;;;;5089783;28;20115;-51
2023/06/15 09:23:01;;;;;;;8.32;4.95;;;21.50;99.90;;;;;;5065445;28;20065;-50
2023/06/15 09:25:29;;;;;;;8.13;4.95;;;21.50;99.90;;;;;;5084661;28;20040;-50
2023/06/15 09:27:56;;;;;;;6.10;4.30;;;21.30;99.90;;;;;;5079965;28;20059;-51
2023/06/15 09:30:32;;;;;;;8.93;4.75;;;21.40;99.90;;;;;;5083492;28;20089;-50
2023/06/15 09:32:59;;;;;;;5.68;4.55;;;21.60;99.90;;;;;;5066633;28;20123;-51
2023/06/15 09:35:25;;;;;;;6.57;4.60;;;21.60;99.90;;;;;;5082149;28;20036;-50
2023/06/15 09:37:55;;;;;;;8.38;4.50;;;21.80;99.90;;;;;;5085154;28;20031;-50
2023/06/15 09:40:25;;;;;;;7.40;4.85;;;21.70;99.90;;;;;;5086258;28;20031;-51
2023/06/15 09:42:52;;;;;;;7.85;5.90;;;21.70;99.90;;;;;;5082002;28;20027;-51
2023/06/15 09:45:19;;;;;;;10.07;5.20;;;21.70;99.90;;;;;;5081672;28;20023;-50
2023/06/15 09:47:45;;;;;;;9.95;6.50;;;21.70;99.90;;;;;;5084935;28;20115;-52
2023/06/15 09:50:11;;;;;;;7.53;4.78;;;21.70;99.90;;;;;;5088601;28;20028;-50
2023/06/15 09:52:42;;;;;;;6.22;4.53;;;21.70;99.90;;;;;;5086394;28;20028;-50
2023/06/15 09:55:09;;;;;;;7.32;4.70;;;21.80;99.90;;;;;;5091166;28;20036;-51
2023/06/15 09:57:35;;;;;;;6.97;4.70;;;21.90;99.90;;;;;;5079996;28;20359;-50
2023/06/15 10:00:06;;;;;;;7.15;4.80;;;21.70;99.90;;;;;;5087030;28;20122;-51
2023/06/15 10:02:35;;;;;;;6.95;4.78;;;21.40;99.90;;;;;;5080590;28;20040;-51
2023/06/15 10:05:05;;;;;;;6.95;4.10;;;21.20;99.90;;;;;;5085476;28;20111;-50
2023/06/15 10:07:32;;;;;;;7.40;4.25;;;21.10;99.90;;;;;;5091688;28;20111;-51
2023/06/15 10:10:01;;;;;;;8.32;4.40;;;21.40;99.90;;;;;;5082930;28;20032;-49
2023/06/15 10:12:28;;;;;;;7.43;4.57;;;21.30;99.90;;;;;;5083174;28;20025;-51
2023/06/15 10:15:12;;;;;;;6.80;4.47;;;21.20;99.90;;;;;;5061748;28;20403;-50
2023/06/15 10:17:41;;;;;;;6.15;4.10;;;21.50;99.90;;;;;;5069442;28;20040;-50
2023/06/15 10:20:16;;;;;;;8.73;4.47;;;21.60;99.90;;;;;;5087014;28;20039;-51
2023/06/15 10:23:04;;;;;;;8.65;5.22;;;21.90;99.90;;;;;;5089623;28;20032;-51
2023/06/15 10:25:30;;;;;;;6.57;4.25;;;22.10;99.90;;;;;;5082425;28;20032;-52
2023/06/15 10:27:58;;;;;;;8.02;4.80;;;22.30;99.90;;;;;;5065303;28;20069;-50
2023/06/15 10:30:46;;;;;;;7.15;4.65;;;22.30;99.90;;;;;;5079129;28;20090;-50
2023/06/15 10:33:27;;;;;;;7.40;4.40;;;22.50;99.90;;;;;;5087728;28;20467;-52
2023/06/15 10:35:58;;;;;;;7.63;4.47;;;22.70;99.90;;;;;;5087745;28;20024;-52
2023/06/15 10:38:41;;;;;;;6.50;4.45;;;22.80;99.90;;;;;;5080857;28;20028;-53
2023/06/15 10:41:07;;;;;;;9.07;4.47;;;22.80;99.90;;;;;;5084722;28;20051;-53
2023/06/15 10:43:33;;;;;;;7.32;4.43;;;22.60;99.90;;;;;;5075928;28;20051;-50
2023/06/15 10:46:00;;;;;;;6.93;4.88;;;22.40;99.90;;;;;;5079112;28;20479;-50
2023/06/15 10:48:27;;;;;;;6.32;4.40;;;22.40;99.90;;;;;;5073309;28;20712;-49
2023/06/15 10:51:08;;;;;;;8.25;5.18;;;22.40;99.90;;;;;;5086335;28;20483;-52
2023/06/15 10:53:39;;;;;;;7.63;4.57;;;22.50;99.90;;;;;;5075949;28;20024;-52
2023/06/15 10:56:13;;;;;;;6.82;4.88;;;22.50;99.90;;;;;;5078487;28;20094;-49
2023/06/15 10:59:03;;;;;;;6.53;4.60;;;22.40;99.90;;;;;;5085379;28;20480;-53
2023/06/15 11:01:32;;;;;;;6.70;4.70;;;22.50;99.90;;;;;;5077317;28;20036;-50
2023/06/15 11:04:02;;;;;;;8.75;4.75;;;22.50;99.90;;;;;;5086897;28;20088;-51
2023/06/15 11:06:37;;;;;;;6.57;4.00;;;22.50;99.90;;;;;;5045371;28;20036;-51
2023/06/15 11:09:11;;;;;;;5.93;3.88;;;22.30;99.90;;;;;;5086976;28;20379;-51
2023/06/15 11:11:38;;;;;;;6.13;3.90;;;22.40;99.90;;;;;;5073804;28;20040;-51
2023/06/15 11:14:07;;;;;;;5.75;3.70;;;22.40;99.90;;;;;;5080308;28;20494;-50
2023/06/15 11:16:34;;;;;;;5.22;3.63;;;22.40;99.90;;;;;;5084730;28;20035;-50
2023/06/15 11:19:12;;;;;;;5.93;4.45;;;22.30;99.90;;;;;;5088126;28;20106;-50
2023/06/15 11:21:40;;;;;;;6.57;4.13;;;22.20;99.90;;;;;;5058616;28;20076;-50
2023/06/15 11:24:06;;;;;;;6.93;3.75;;;22.30;99.90;;;;;;5045785;28;20100;-50
2023/06/15 11:26:34;;;;;;;5.75;3.88;;;22.30;99.90;;;;;;5074808;28;20399;-50
2023/06/15 11:29:03;;;;;;;6.10;4.57;;;22.30;99.90;;;;;;5056148;28;20047;-50
2023/06/15 11:31:31;;;;;;;6.03;4.13;;;22.30;99.90;;;;;;5086386;28;20032;-50
2023/06/15 11:33:57;;;;;;;7.80;4.93;;;21.90;99.90;;;;;;5078661;28;20028;-50
2023/06/15 11:36:23;;;;;;;6.78;4.15;;;22.00;99.90;;;;;;5069398;28;20123;-51
2023/06/15 11:38:49;;;;;;;6.15;4.65;;;22.10;99.90;;;;;;5081159;28;20115;-53
2023/06/15 11:41:15;;;;;;;5.53;4.40;;;21.90;99.90;;;;;;5051047;28;20518;-53
2023/06/15 11:43:41;;;;;;;7.65;4.05;;;21.90;99.90;;;;;;5086720;28;20024;-51
2023/06/15 11:46:14;;;;;;;6.55;4.60;;;22.00;99.90;;;;;;5083803;28;20028;-52
2023/06/15 11:48:40;;;;;;;8.82;4.80;;;21.90;99.90;;;;;;5083814;28;20043;-51
2023/06/15 11:51:08;;;;;;;7.68;4.68;;;22.20;99.90;;;;;;5088746;28;20048;-51
2023/06/15 11:53:35;;;;;;;7.18;4.28;;;22.10;99.90;;;;;;5077449;28;20036;-50
2023/06/15 11:56:01;;;;;;;8.10;4.85;;;22.20;99.90;;;;;;5083969;28;20033;-51
2023/06/15 11:58:27;;;;;;;6.90;4.78;;;22.10;99.90;;;;;;5084567;28;20502;-50
2023/06/15 12:00:53;;;;;;;8.18;5.15;;;22.10;99.90;;;;;;5080079;28;20024;-51
2023/06/15 12:03:19;;;;;;;7.80;4.47;;;22.30;99.90;;;;;;5067015;28;20043;-50
2023/06/15 12:05:54;;;;;;;7.20;4.13;;;22.10;99.90;;;;;;5032046;28;20044;-50
2023/06/15 12:08:20;;;;;;;5.75;4.00;;;22.10;99.90;;;;;;5088617;28;20020;-50
2023/06/15 12:10:46;;;;;;;6.93;3.97;;;21.80;99.90;;;;;;5081698;28;20098;-50
2023/06/15 12:13:12;;;;;;;6.00;4.03;;;21.70;99.90;;;;;;5080783;28;20119;-49
2023/06/15 12:15:46;;;;;;;6.60;3.72;;;21.70;99.90;;;;;;5084042;28;20083;-49
2023/06/15 12:18:12;;;;;;;4.97;3.22;;;21.70;99.90;;;;;;5082545;28;20036;-50
2023/06/15 12:20:39;;;;;;;5.95;3.25;;;21.70;99.90;;;;;;5085132;28;20033;-49
2023/06/15 12:23:05;;;;;;;6.00;3.60;;;21.70;99.90;;;;;;5081290;28;20107;-51
2023/06/15 12:26:01;;;;;;;6.35;3.60;;;21.60;99.90;;;;;;5080093;28;20421;-50
2023/06/15 12:28:30;;;;;;;6.80;3.67;;;21.60;99.90;;;;;;5009658;28;20044;-49
2023/06/15 12:31:01;;;;;;;6.78;4.18;;;21.50;99.90;;;;;;5010703;28;20042;-49
2023/06/15 12:33:38;;;;;;;7.55;4.13;;;21.50;99.90;;;;;;5008067;28;20033;-49
2023/06/15 12:36:10;;;;;;;5.68;3.70;;;21.60;99.90;;;;;;5002587;28;20030;-50
2023/06/15 12:38:37;;;;;;;8.32;4.45;;;21.70;99.90;;;;;;5000895;28;20053;-50
2023/06/15 12:41:03;;;;;;;6.93;3.92;;;21.70;99.90;;;;;;5006047;28;20046;-49
2023/06/15 12:43:30;;;;;;;6.15;4.22;;;21.70;99.90;;;;;;5011671;28;20112;-49
2023/06/15 12:45:55;;;;;;;8.32;4.30;;;21.70;99.90;;;;;;5008909;28;20049;-49
2023/06/15 12:48:22;;;;;;;8.00;4.05;;;21.70;99.90;;;;;;4998092;28;20041;-49
2023/06/15 12:50:52;;;;;;;6.40;4.13;;;21.70;99.90;;;;;;5006829;28;20037;-49
2023/06/15 12:53:19;;;;;;;6.35;3.92;;;21.80;99.90;;;;;;5007117;28;20578;-51
2023/06/15 12:55:46;;;;;;;5.30;3.85;;;21.70;99.90;;;;;;4998115;28;20023;-49
2023/06/15 12:58:11;;;;;;;5.13;4.28;;;21.60;99.90;;;;;;5009884;28;20046;-49
2023/06/15 13:00:37;;;;;;;6.35;4.20;;;21.40;99.90;;;;;;5006950;28;20105;-50
2023/06/15 13:03:06;;;;;;;7.55;4.47;;;21.40;99.90;;;;;;5006057;28;20041;-49
2023/06/15 13:05:33;;;;;;;7.47;4.78;;;21.90;99.90;;;;;;5070185;28;20479;-49
2023/06/15 13:08:00;;;;;;;6.53;4.47;;;21.30;99.90;;;;;;5089130;28;20055;-49
2023/06/15 13:10:26;;;;;;;6.18;4.07;;;21.30;99.90;;;;;;5089649;28;20113;-50
2023/06/15 13:12:52;;;;;;;5.95;4.20;;;21.20;99.90;;;;;;5088648;28;20036;-51